createdAt,value
2022-08-26T00:00:15.280Z,0
2022-08-26T00:01:17.116Z,0
2022-08-26T00:02:16.616Z,0
2022-08-26T00:03:20.002Z,0
2022-08-26T00:04:17.673Z,0
2022-08-26T00:05:18.674Z,0
2022-08-26T00:06:26.126Z,0
2022-08-26T00:07:21.421Z,0
2022-08-26T00:08:24.174Z,0
2022-08-26T00:09:27.525Z,0
2022-08-26T00:10:22.825Z,0
2022-08-26T00:11:31.943Z,0
2022-08-26T00:12:27.348Z,0
2022-08-26T00:13:25.615Z,0
2022-08-26T00:14:28.413Z,0
2022-08-26T00:15:24.040Z,0
2022-08-26T00:16:23.755Z,0
2022-08-26T00:17:26.582Z,0
2022-08-26T00:18:49.414Z,0
2022-08-26T00:19:27.609Z,0
2022-08-26T00:20:28.218Z,0
2022-08-26T00:21:28.868Z,0
2022-08-26T00:22:33.092Z,0
2022-08-26T00:23:33.986Z,0
2022-08-26T00:24:30.513Z,0
2022-08-26T00:25:33.372Z,0
2022-08-26T00:26:34.715Z,0
2022-08-26T00:27:33.597Z,0
2022-08-26T00:28:35.947Z,0
2022-08-26T00:29:37.463Z,0
2022-08-26T00:30:40.586Z,0
2022-08-26T00:31:36.793Z,0
2022-08-26T00:32:40.016Z,0
2022-08-26T00:33:37.214Z,0
2022-08-26T00:34:36.141Z,0
2022-08-26T00:35:39.113Z,0
2022-08-26T00:36:40.962Z,0
2022-08-26T00:37:41.567Z,0
2022-08-26T00:38:43.294Z,0
2022-08-26T00:39:39.515Z,0
2022-08-26T00:40:40.102Z,0
2022-08-26T00:41:39.765Z,0
2022-08-26T00:42:45.983Z,0
2022-08-26T00:43:59.565Z,0
2022-08-26T00:44:42.160Z,0
2022-08-26T00:45:42.988Z,0
2022-08-26T00:46:45.048Z,0
2022-08-26T00:47:48.924Z,0
2022-08-26T00:48:49.235Z,0
2022-08-26T00:49:46.102Z,0
2022-08-26T00:50:44.487Z,0
2022-08-26T00:51:47.948Z,0
2022-08-26T00:52:49.421Z,0
2022-08-26T00:53:46.715Z,0
2022-08-26T00:54:48.323Z,0
2022-08-26T00:55:55.330Z,0
2022-08-26T00:56:48.582Z,0
2022-08-26T00:57:50.683Z,0
2022-08-26T00:58:51.737Z,0
2022-08-26T00:59:50.645Z,0
2022-08-26T01:00:51.270Z,0
2022-08-26T01:01:52.761Z,0
2022-08-26T01:02:58.138Z,0
2022-08-26T01:03:52.579Z,0
2022-08-26T01:05:01.103Z,0
2022-08-26T01:05:53.355Z,0
2022-08-26T01:06:55.208Z,0
2022-08-26T01:07:54.992Z,0
2022-08-26T01:08:55.788Z,0
2022-08-26T01:09:56.400Z,0
2022-08-26T01:10:56.407Z,0
2022-08-26T01:11:56.448Z,0
2022-08-26T01:12:57.661Z,0
2022-08-26T01:13:57.562Z,0
2022-08-26T01:15:03.477Z,0
2022-08-26T01:15:59.099Z,0
2022-08-26T01:17:00.944Z,0
2022-08-26T01:18:00.746Z,0
2022-08-26T01:19:01.124Z,0
2022-08-26T01:20:03.366Z,0
2022-08-26T01:21:03.267Z,0
2022-08-26T01:22:02.309Z,0
2022-08-26T01:23:08.556Z,0
2022-08-26T01:24:08.847Z,0
2022-08-26T01:25:04.983Z,0
2022-08-26T01:26:07.582Z,0
2022-08-26T01:27:06.307Z,0
2022-08-26T01:28:08.345Z,0
2022-08-26T01:29:08.618Z,0
2022-08-26T01:30:07.328Z,0
2022-08-26T01:31:07.245Z,0
2022-08-26T01:32:10.537Z,0
2022-08-26T01:33:08.663Z,0
2022-08-26T01:34:09.149Z,0
2022-08-26T01:35:07.944Z,0
2022-08-26T01:36:10.559Z,0
2022-08-26T01:37:13.721Z,0
2022-08-26T01:38:10.520Z,0
2022-08-26T01:39:12.666Z,0
2022-08-26T01:40:11.607Z,0
2022-08-26T01:41:27.125Z,0
2022-08-26T01:42:15.941Z,0
2022-08-26T01:43:14.804Z,0
2022-08-26T01:44:15.004Z,0
2022-08-26T01:45:15.380Z,0
2022-08-26T01:46:15.893Z,0
2022-08-26T01:47:17.532Z,0
2022-08-26T01:48:16.698Z,0
2022-08-26T01:49:19.293Z,0
2022-08-26T01:50:33.466Z,0
2022-08-26T01:51:17.416Z,0
2022-08-26T01:52:27.547Z,0
2022-08-26T01:53:21.420Z,0
2022-08-26T01:54:26.058Z,0
2022-08-26T01:55:38.363Z,0
2022-08-26T01:56:22.168Z,0
2022-08-26T01:57:22.293Z,0
2022-08-26T01:58:23.964Z,0
2022-08-26T01:59:27.954Z,0
2022-08-26T02:00:27.222Z,0
2022-08-26T02:01:29.059Z,0
2022-08-26T02:02:26.662Z,0
2022-08-26T02:03:25.689Z,0
2022-08-26T02:04:27.087Z,0
2022-08-26T02:05:27.632Z,0
2022-08-26T02:06:30.695Z,0
2022-08-26T02:07:33.214Z,0
2022-08-26T02:08:38.258Z,0
2022-08-26T02:09:32.218Z,0
2022-08-26T02:10:32.184Z,0
2022-08-26T02:11:37.498Z,0
2022-08-26T02:12:31.170Z,0
2022-08-26T02:13:35.211Z,0
2022-08-26T02:14:42.371Z,0
2022-08-26T02:15:37.713Z,0
2022-08-26T02:16:36.430Z,0
2022-08-26T02:17:40.118Z,0
2022-08-26T02:18:36.320Z,0
2022-08-26T02:19:38.012Z,0
2022-08-26T02:20:38.234Z,0
2022-08-26T02:21:37.662Z,0
2022-08-26T02:22:38.275Z,0
2022-08-26T02:23:40.964Z,0
2022-08-26T02:24:39.727Z,0
2022-08-26T02:25:39.625Z,0
2022-08-26T02:26:44.345Z,0
2022-08-26T02:27:43.651Z,0
2022-08-26T02:28:43.403Z,0
2022-08-26T02:29:44.753Z,0
2022-08-26T02:30:45.357Z,0
2022-08-26T02:31:45.874Z,0
2022-08-26T02:32:46.570Z,0
2022-08-26T02:33:48.585Z,0
2022-08-26T02:34:48.436Z,0
2022-08-26T02:35:48.458Z,0
2022-08-26T02:36:50.766Z,0
2022-08-26T02:37:54.897Z,0
2022-08-26T02:38:53.712Z,0
2022-08-26T02:39:50.127Z,0
2022-08-26T02:40:53.368Z,0
2022-08-26T02:41:56.424Z,0
2022-08-26T02:42:55.929Z,0
2022-08-26T02:43:52.417Z,0
2022-08-26T02:44:53.337Z,0
2022-08-26T02:45:55.142Z,0
2022-08-26T02:46:59.396Z,0
2022-08-26T02:47:55.533Z,0
2022-08-26T02:48:55.513Z,0
2022-08-26T02:49:58.053Z,0
2022-08-26T02:50:56.541Z,0
2022-08-26T02:51:57.123Z,0
2022-08-26T02:52:57.349Z,0
2022-08-26T02:54:00.754Z,0
2022-08-26T02:55:00.433Z,0
2022-08-26T02:56:00.754Z,0
2022-08-26T02:57:00.629Z,0
2022-08-26T02:58:02.310Z,0
2022-08-26T02:59:01.871Z,0
2022-08-26T03:00:05.634Z,0
2022-08-26T03:01:10.429Z,0
2022-08-26T03:02:07.555Z,0
2022-08-26T03:03:05.746Z,0
2022-08-26T03:04:06.335Z,0
2022-08-26T03:05:17.193Z,0
2022-08-26T03:06:06.067Z,0
2022-08-26T03:07:10.010Z,0
2022-08-26T03:08:07.244Z,0
2022-08-26T03:09:09.281Z,0
2022-08-26T03:10:13.640Z,0
2022-08-26T03:11:12.431Z,0
2022-08-26T03:12:13.038Z,0
2022-08-26T03:13:16.450Z,0
2022-08-26T03:14:13.963Z,0
2022-08-26T03:15:23.051Z,0
2022-08-26T03:16:13.544Z,0
2022-08-26T03:17:15.254Z,0
2022-08-26T03:18:13.858Z,0
2022-08-26T03:19:17.508Z,0
2022-08-26T03:20:19.086Z,0
2022-08-26T03:21:17.506Z,0
2022-08-26T03:22:19.927Z,0
2022-08-26T03:23:21.313Z,0
2022-08-26T03:24:19.690Z,0
2022-08-26T03:25:19.883Z,0
2022-08-26T03:26:22.021Z,0
2022-08-26T03:27:26.251Z,0
2022-08-26T03:28:24.454Z,0
2022-08-26T03:29:22.087Z,0
2022-08-26T03:30:23.285Z,0
2022-08-26T03:31:24.493Z,0
2022-08-26T03:32:22.824Z,0
2022-08-26T03:33:23.396Z,0
2022-08-26T03:34:23.963Z,0
2022-08-26T03:35:27.886Z,0
2022-08-26T03:36:25.333Z,0
2022-08-26T03:37:25.796Z,0
2022-08-26T03:38:26.068Z,0
2022-08-26T03:39:27.308Z,0
2022-08-26T03:40:34.373Z,0
2022-08-26T03:41:28.158Z,0
2022-08-26T03:42:32.042Z,0
2022-08-26T03:43:29.676Z,0
2022-08-26T03:44:30.539Z,0
2022-08-26T03:45:31.721Z,0
2022-08-26T03:46:32.334Z,0
2022-08-26T03:47:31.316Z,0
2022-08-26T03:48:31.525Z,0
2022-08-26T03:49:34.430Z,0
2022-08-26T03:50:39.825Z,0
2022-08-26T03:51:38.780Z,0
2022-08-26T03:52:33.814Z,0
2022-08-26T03:53:37.109Z,0
2022-08-26T03:54:35.071Z,0
2022-08-26T03:55:40.672Z,0
2022-08-26T03:56:37.918Z,0
2022-08-26T03:57:39.287Z,0
2022-08-26T03:58:37.595Z,0
2022-08-26T03:59:38.839Z,0
2022-08-26T04:00:39.933Z,0
2022-08-26T04:01:41.706Z,0
2022-08-26T04:02:40.145Z,0
2022-08-26T04:03:40.643Z,0
2022-08-26T04:04:41.566Z,0
2022-08-26T04:05:41.162Z,0
2022-08-26T04:06:42.469Z,0
2022-08-26T04:07:44.671Z,0
2022-08-26T04:08:45.574Z,0
2022-08-26T04:09:46.485Z,0
2022-08-26T04:10:45.722Z,0
2022-08-26T04:11:50.448Z,0
2022-08-26T04:12:46.286Z,0
2022-08-26T04:13:46.342Z,0
2022-08-26T04:14:49.901Z,0
2022-08-26T04:15:48.544Z,0
2022-08-26T04:16:50.272Z,0
2022-08-26T04:17:49.090Z,0
2022-08-26T04:18:57.861Z,0
2022-08-26T04:19:50.786Z,0
2022-08-26T04:20:52.094Z,0
2022-08-26T04:21:51.826Z,0
2022-08-26T04:22:52.727Z,0
2022-08-26T04:24:11.734Z,0
2022-08-26T04:24:55.403Z,0
2022-08-26T04:25:57.065Z,0
2022-08-26T04:26:59.140Z,0
2022-08-26T04:28:02.508Z,0
2022-08-26T04:28:56.726Z,0
2022-08-26T04:30:03.348Z,0
2022-08-26T04:31:01.681Z,0
2022-08-26T04:32:00.652Z,0
2022-08-26T04:32:59.411Z,0
2022-08-26T04:34:02.580Z,0
2022-08-26T04:35:03.100Z,0
2022-08-26T04:36:05.141Z,0
2022-08-26T04:37:03.063Z,5.63
2022-08-26T04:38:03.156Z,5.63
2022-08-26T04:39:04.932Z,5.63
2022-08-26T04:40:05.190Z,5.63
2022-08-26T04:41:14.789Z,5.63
2022-08-26T04:42:08.792Z,5.63
2022-08-26T04:43:08.193Z,5.63
2022-08-26T04:44:08.585Z,5.63
2022-08-26T04:45:11.664Z,5.63
2022-08-26T04:46:08.669Z,5.63
2022-08-26T04:47:09.920Z,5.63
2022-08-26T04:48:10.194Z,5.63
2022-08-26T04:49:10.338Z,5.63
2022-08-26T04:50:13.160Z,5.63
2022-08-26T04:51:13.048Z,5.63
2022-08-26T04:52:13.898Z,5.63
2022-08-26T04:53:18.550Z,5.63
2022-08-26T04:54:16.854Z,5.63
2022-08-26T04:55:19.194Z,5.63
2022-08-26T04:56:16.349Z,5.63
2022-08-26T04:57:15.724Z,5.63
2022-08-26T04:58:17.341Z,5.63
2022-08-26T04:59:27.004Z,5.63
2022-08-26T05:00:18.140Z,11.25
2022-08-26T05:01:18.684Z,11.25
2022-08-26T05:02:20.615Z,11.25
2022-08-26T05:03:21.749Z,11.25
2022-08-26T05:04:30.538Z,11.25
2022-08-26T05:05:23.521Z,16.88
2022-08-26T05:06:24.539Z,16.88
2022-08-26T05:07:23.117Z,16.88
2022-08-26T05:08:23.893Z,16.88
2022-08-26T05:09:26.556Z,16.88
2022-08-26T05:10:25.659Z,16.88
2022-08-26T05:11:27.217Z,16.88
2022-08-26T05:12:27.264Z,16.88
2022-08-26T05:13:31.147Z,16.88
2022-08-26T05:14:27.758Z,16.88
2022-08-26T05:15:28.184Z,16.88
2022-08-26T05:16:28.929Z,16.88
2022-08-26T05:17:32.254Z,16.88
2022-08-26T05:18:31.489Z,22.5
2022-08-26T05:19:38.652Z,22.5
2022-08-26T05:20:38.061Z,22.5
2022-08-26T05:21:32.868Z,22.5
2022-08-26T05:22:36.818Z,22.5
2022-08-26T05:23:34.224Z,22.5
2022-08-26T05:24:34.038Z,22.5
2022-08-26T05:25:38.484Z,22.5
2022-08-26T05:26:39.983Z,22.5
2022-08-26T05:27:38.313Z,22.5
2022-08-26T05:28:37.728Z,22.5
2022-08-26T05:29:38.026Z,28.13
2022-08-26T05:30:39.698Z,28.13
2022-08-26T05:31:39.738Z,28.13
2022-08-26T05:32:40.341Z,28.13
2022-08-26T05:33:41.283Z,28.13
2022-08-26T05:34:51.501Z,28.13
2022-08-26T05:35:42.564Z,28.13
2022-08-26T05:36:43.352Z,33.75
2022-08-26T05:37:42.723Z,33.75
2022-08-26T05:38:49.156Z,33.75
2022-08-26T05:39:51.057Z,33.75
2022-08-26T05:40:44.677Z,33.75
2022-08-26T05:41:51.516Z,33.75
2022-08-26T05:42:46.650Z,33.75
2022-08-26T05:43:48.569Z,39.38
2022-08-26T05:45:09.519Z,39.38
2022-08-26T05:45:51.841Z,39.38
2022-08-26T05:46:47.297Z,39.38
2022-08-26T05:47:47.387Z,39.38
2022-08-26T05:48:49.871Z,39.38
2022-08-26T05:50:02.047Z,39.38
2022-08-26T05:50:49.106Z,39.38
2022-08-26T05:51:49.965Z,39.38
2022-08-26T05:52:50.577Z,39.38
2022-08-26T05:54:06.086Z,33.75
2022-08-26T05:54:53.190Z,33.75
2022-08-26T05:55:55.957Z,39.38
2022-08-26T05:56:56.637Z,39.38
2022-08-26T05:58:00.939Z,33.75
2022-08-26T05:58:58.314Z,33.75
2022-08-26T05:59:56.470Z,33.75
2022-08-26T06:00:58.537Z,33.75
2022-08-26T06:01:56.522Z,33.75
2022-08-26T06:02:59.973Z,39.38
2022-08-26T06:03:59.801Z,50.63
2022-08-26T06:04:59.146Z,56.25
2022-08-26T06:05:58.192Z,56.25
2022-08-26T06:07:02.080Z,56.25
2022-08-26T06:07:59.373Z,56.25
2022-08-26T06:09:00.847Z,56.25
2022-08-26T06:10:33.498Z,61.88
2022-08-26T06:11:03.100Z,61.88
2022-08-26T06:12:04.558Z,61.88
2022-08-26T06:13:09.464Z,61.88
2022-08-26T06:14:08.899Z,61.88
2022-08-26T06:15:09.509Z,61.88
2022-08-26T06:16:05.237Z,61.88
2022-08-26T06:17:05.158Z,61.88
2022-08-26T06:18:05.118Z,61.88
2022-08-26T06:19:10.341Z,61.88
2022-08-26T06:20:07.034Z,67.5
2022-08-26T06:21:14.835Z,67.5
2022-08-26T06:22:11.642Z,67.5
2022-08-26T06:23:08.448Z,73.13
2022-08-26T06:24:09.860Z,73.13
2022-08-26T06:25:09.874Z,73.13
2022-08-26T06:26:09.491Z,78.75
2022-08-26T06:27:09.930Z,78.75
2022-08-26T06:28:12.664Z,78.75
2022-08-26T06:29:15.445Z,78.75
2022-08-26T06:30:11.801Z,78.75
2022-08-26T06:31:13.404Z,78.75
2022-08-26T06:32:14.257Z,78.75
2022-08-26T06:33:16.332Z,67.5
2022-08-26T06:34:21.818Z,56.25
2022-08-26T06:35:17.412Z,56.25
2022-08-26T06:36:16.075Z,56.25
2022-08-26T06:37:18.467Z,56.25
2022-08-26T06:38:17.468Z,56.25
2022-08-26T06:39:17.520Z,61.88
2022-08-26T06:40:22.698Z,61.88
2022-08-26T06:41:20.243Z,67.5
2022-08-26T06:42:23.966Z,73.13
2022-08-26T06:43:20.650Z,78.75
2022-08-26T06:44:21.636Z,84.38
2022-08-26T06:45:22.600Z,95.63
2022-08-26T06:46:23.142Z,78.75
2022-08-26T06:47:21.349Z,73.13
2022-08-26T06:48:25.112Z,67.5
2022-08-26T06:49:32.619Z,67.5
2022-08-26T06:50:23.480Z,73.13
2022-08-26T06:51:23.987Z,78.75
2022-08-26T06:52:35.229Z,146.25
2022-08-26T06:53:26.927Z,191.25
2022-08-26T06:54:26.629Z,247.5
2022-08-26T06:55:32.626Z,151.88
2022-08-26T06:56:29.310Z,95.63
2022-08-26T06:57:28.282Z,101.25
2022-08-26T06:58:31.213Z,106.88
2022-08-26T06:59:29.470Z,101.25
2022-08-26T07:00:31.456Z,101.25
2022-08-26T07:01:32.258Z,101.25
2022-08-26T07:02:40.738Z,84.38
2022-08-26T07:03:35.015Z,78.75
2022-08-26T07:06:37.166Z,95.63
2022-08-26T07:07:38.394Z,95.63
2022-08-26T07:08:37.306Z,168.75
2022-08-26T07:09:38.369Z,208.13
2022-08-26T07:10:38.163Z,607.5
2022-08-26T07:11:41.637Z,157.5
2022-08-26T07:12:41.693Z,123.75
2022-08-26T07:13:48.422Z,123.75
2022-08-26T07:14:43.822Z,123.75
2022-08-26T07:15:48.317Z,163.13
2022-08-26T07:16:43.821Z,264.38
2022-08-26T07:17:45.882Z,219.38
2022-08-26T07:18:46.590Z,112.5
2022-08-26T07:19:48.797Z,112.5
2022-08-26T07:20:48.428Z,112.5
2022-08-26T07:21:47.946Z,151.88
2022-08-26T07:22:47.697Z,106.88
2022-08-26T07:23:47.629Z,106.88
2022-08-26T07:25:49.882Z,135
2022-08-26T07:26:48.792Z,123.75
2022-08-26T07:27:53.908Z,123.75
2022-08-26T07:28:50.666Z,123.75
2022-08-26T07:29:50.077Z,123.75
2022-08-26T07:30:52.734Z,106.88
2022-08-26T07:32:01.760Z,106.88
2022-08-26T07:32:53.309Z,112.5
2022-08-26T07:33:53.236Z,123.75
2022-08-26T07:34:54.334Z,123.75
2022-08-26T07:35:54.842Z,123.75
2022-08-26T07:36:56.660Z,123.75
2022-08-26T07:38:01.837Z,123.75
2022-08-26T07:38:56.066Z,123.75
2022-08-26T07:39:58.132Z,129.38
2022-08-26T07:40:58.769Z,123.75
2022-08-26T07:42:00.452Z,123.75
2022-08-26T07:43:00.908Z,123.75
2022-08-26T07:44:00.522Z,129.38
2022-08-26T07:45:00.030Z,129.38
2022-08-26T07:46:00.451Z,118.13
2022-08-26T07:47:10.344Z,112.5
2022-08-26T07:48:15.273Z,118.13
2022-08-26T07:49:13.515Z,118.13
2022-08-26T07:50:13.596Z,118.13
2022-08-26T07:51:14.457Z,123.75
2022-08-26T07:52:16.383Z,112.5
2022-08-26T07:53:24.144Z,106.88
2022-08-26T07:54:18.702Z,101.25
2022-08-26T07:55:16.713Z,95.63
2022-08-26T07:56:16.691Z,101.25
2022-08-26T08:00:22.440Z,84.38
2022-08-26T08:01:25.708Z,84.38
2022-08-26T08:02:22.691Z,90
2022-08-26T08:03:25.811Z,90
2022-08-26T08:04:31.622Z,95.63
2022-08-26T08:05:33.631Z,101.25
2022-08-26T08:06:27.084Z,95.63
2022-08-26T08:07:49.392Z,101.25
2022-08-26T08:08:45.340Z,106.88
2022-08-26T08:09:29.701Z,118.13
2022-08-26T08:10:32.132Z,320.63
2022-08-26T08:11:29.367Z,371.25
2022-08-26T08:12:30.914Z,331.88
2022-08-26T08:13:31.264Z,202.5
2022-08-26T08:14:34.474Z,129.38
2022-08-26T08:15:34.170Z,140.63
2022-08-26T08:16:41.488Z,123.75
2022-08-26T08:17:34.568Z,123.75
2022-08-26T08:18:35.068Z,123.75
2022-08-26T08:19:47.388Z,123.75
2022-08-26T08:20:37.433Z,123.75
2022-08-26T08:21:41.484Z,123.75
2022-08-26T08:22:44.065Z,129.38
2022-08-26T08:23:44.215Z,123.75
2022-08-26T08:24:43.238Z,123.75
2022-08-26T08:25:44.500Z,123.75
2022-08-26T08:26:45.153Z,123.75
2022-08-26T08:27:47.056Z,123.75
2022-08-26T08:28:47.879Z,123.75
2022-08-26T08:29:47.285Z,129.38
2022-08-26T08:30:52.208Z,135
2022-08-26T08:32:16.729Z,135
2022-08-26T08:33:16.113Z,135
2022-08-26T08:34:15.621Z,135
2022-08-26T08:35:22.740Z,135
2022-08-26T08:36:23.947Z,135
2022-08-26T08:37:21.854Z,140.63
2022-08-26T08:38:22.790Z,140.63
2022-08-26T08:39:18.236Z,140.63
2022-08-26T08:40:18.726Z,140.63
2022-08-26T08:41:22.795Z,140.63
2022-08-26T08:42:21.962Z,146.25
2022-08-26T08:43:21.099Z,146.25
2022-08-26T08:44:21.245Z,151.88
2022-08-26T08:45:22.285Z,151.88
2022-08-26T08:46:22.320Z,151.88
2022-08-26T08:47:22.524Z,151.88
2022-08-26T08:48:27.719Z,157.5
2022-08-26T08:49:25.249Z,151.88
2022-08-26T08:50:24.109Z,151.88
2022-08-26T08:51:26.020Z,151.88
2022-08-26T08:52:32.093Z,146.25
2022-08-26T08:53:26.438Z,151.88
2022-08-26T08:54:27.644Z,151.88
2022-08-26T08:55:31.429Z,151.88
2022-08-26T08:57:29.985Z,163.13
2022-08-26T08:58:31.447Z,163.13
2022-08-26T08:59:32.057Z,163.13
2022-08-26T09:00:44.957Z,157.5
2022-08-26T09:01:34.612Z,157.5
2022-08-26T09:02:33.498Z,157.5
2022-08-26T09:03:34.613Z,168.75
2022-08-26T09:04:35.888Z,196.88
2022-08-26T09:05:36.014Z,337.5
2022-08-26T09:06:40.972Z,421.88
2022-08-26T09:07:39.996Z,444.38
2022-08-26T09:08:37.510Z,483.75
2022-08-26T09:09:38.501Z,472.5
2022-08-26T09:10:40.560Z,506.25
2022-08-26T09:11:39.678Z,472.5
2022-08-26T09:12:45.479Z,405
2022-08-26T09:13:42.979Z,393.75
2022-08-26T09:14:43.444Z,343.13
2022-08-26T09:15:45.559Z,337.5
2022-08-26T09:16:41.626Z,292.5
2022-08-26T09:17:42.629Z,236.25
2022-08-26T09:18:41.779Z,348.75
2022-08-26T09:19:43.555Z,292.5
2022-08-26T09:20:45.423Z,326.25
2022-08-26T09:21:44.587Z,399.38
2022-08-26T09:22:49.702Z,292.5
2022-08-26T09:23:49.734Z,298.13
2022-08-26T09:24:59.797Z,241.88
2022-08-26T09:25:51.623Z,264.38
2022-08-26T09:26:48.235Z,303.75
2022-08-26T09:27:50.361Z,303.75
2022-08-26T09:28:49.958Z,258.75
2022-08-26T09:29:50.351Z,354.38
2022-08-26T09:30:50.133Z,388.13
2022-08-26T09:31:52.347Z,382.5
2022-08-26T09:33:01.639Z,376.88
2022-08-26T09:33:52.154Z,382.5
2022-08-26T09:34:52.614Z,376.88
2022-08-26T09:35:54.344Z,371.25
2022-08-26T09:36:57.760Z,365.63
2022-08-26T09:37:53.965Z,365.63
2022-08-26T09:38:56.471Z,382.5
2022-08-26T09:39:55.396Z,354.38
2022-08-26T09:41:05.027Z,337.5
2022-08-26T09:41:56.786Z,365.63
2022-08-26T09:42:59.682Z,365.63
2022-08-26T09:43:57.851Z,382.5
2022-08-26T09:44:57.197Z,382.5
2022-08-26T09:46:11.946Z,382.5
2022-08-26T09:46:58.865Z,376.88
2022-08-26T09:48:01.275Z,371.25
2022-08-26T09:49:10.351Z,376.88
2022-08-26T09:50:01.577Z,376.88
2022-08-26T09:51:02.883Z,376.88
2022-08-26T09:52:08.526Z,376.88
2022-08-26T09:53:02.180Z,376.88
2022-08-26T09:54:02.886Z,376.88
2022-08-26T09:55:05.892Z,292.5
2022-08-26T09:56:05.910Z,202.5
2022-08-26T09:57:05.114Z,241.88
2022-08-26T09:58:14.274Z,264.38
2022-08-26T09:59:07.514Z,213.75
2022-08-26T10:00:08.120Z,230.63
2022-08-26T10:01:08.391Z,202.5
2022-08-26T10:02:17.546Z,253.13
2022-08-26T10:03:10.452Z,315
2022-08-26T10:04:09.577Z,292.5
2022-08-26T10:05:20.402Z,281.25
2022-08-26T10:06:09.926Z,264.38
2022-08-26T10:07:09.536Z,298.13
2022-08-26T10:08:11.076Z,219.38
2022-08-26T10:09:18.897Z,253.13
2022-08-26T10:10:12.507Z,309.38
2022-08-26T10:11:12.304Z,382.5
2022-08-26T10:12:16.200Z,376.88
2022-08-26T10:13:14.713Z,382.5
2022-08-26T10:14:14.912Z,382.5
2022-08-26T10:15:16.983Z,382.5
2022-08-26T10:16:21.156Z,382.5
2022-08-26T10:17:18.508Z,382.5
2022-08-26T10:18:20.197Z,388.13
2022-08-26T10:19:20.951Z,393.75
2022-08-26T10:20:36.971Z,405
2022-08-26T10:21:23.429Z,410.63
2022-08-26T10:22:21.454Z,421.88
2022-08-26T10:23:23.263Z,433.13
2022-08-26T10:24:22.493Z,444.38
2022-08-26T10:25:21.962Z,450
2022-08-26T10:26:23.839Z,455.63
2022-08-26T10:27:24.665Z,461.25
2022-08-26T10:28:23.920Z,478.13
2022-08-26T10:29:23.755Z,500.63
2022-08-26T10:30:28.089Z,551.25
2022-08-26T10:31:38.119Z,573.75
2022-08-26T10:32:30.811Z,590.63
2022-08-26T10:33:25.979Z,613.13
2022-08-26T10:34:32.156Z,630
2022-08-26T10:35:27.252Z,624.38
2022-08-26T10:36:34.089Z,630
2022-08-26T10:37:32.155Z,630
2022-08-26T10:38:34.109Z,630
2022-08-26T10:39:32.622Z,630
2022-08-26T10:40:32.826Z,641.25
2022-08-26T10:41:34.664Z,635.63
2022-08-26T10:42:34.193Z,635.63
2022-08-26T10:43:36.451Z,630
2022-08-26T10:44:34.066Z,635.63
2022-08-26T10:45:35.773Z,635.63
2022-08-26T10:46:38.446Z,618.75
2022-08-26T10:47:35.527Z,618.75
2022-08-26T10:48:46.431Z,613.13
2022-08-26T10:49:39.380Z,601.88
2022-08-26T10:50:39.819Z,590.63
2022-08-26T10:51:41.382Z,562.5
2022-08-26T10:52:47.777Z,551.25
2022-08-26T10:53:57.043Z,545.63
2022-08-26T10:54:45.292Z,551.25
2022-08-26T10:55:46.116Z,551.25
2022-08-26T10:56:47.378Z,528.75
2022-08-26T10:57:46.641Z,528.75
2022-08-26T10:58:49.773Z,523.13
2022-08-26T10:59:48.054Z,511.88
2022-08-26T11:00:50.108Z,500.63
2022-08-26T11:01:52.743Z,495
2022-08-26T11:02:52.880Z,455.63
2022-08-26T11:03:50.927Z,450
2022-08-26T11:04:58.860Z,444.38
2022-08-26T11:05:51.951Z,438.75
2022-08-26T11:06:53.734Z,438.75
2022-08-26T11:07:54.984Z,416.25
2022-08-26T11:08:55.695Z,421.88
2022-08-26T11:09:55.598Z,427.5
2022-08-26T11:10:56.409Z,438.75
2022-08-26T11:11:57.138Z,438.75
2022-08-26T11:13:00.048Z,444.38
2022-08-26T11:14:00.101Z,450
2022-08-26T11:15:10.864Z,461.25
2022-08-26T11:15:58.841Z,472.5
2022-08-26T11:17:00.532Z,472.5
2022-08-26T11:18:00.467Z,495
2022-08-26T11:19:02.442Z,478.13
2022-08-26T11:20:25.289Z,461.25
2022-08-26T11:21:02.267Z,455.63
2022-08-26T11:22:06.129Z,455.63
2022-08-26T11:23:05.552Z,450
2022-08-26T11:24:07.928Z,455.63
2022-08-26T11:25:04.875Z,461.25
2022-08-26T11:26:04.960Z,461.25
2022-08-26T11:27:14.960Z,466.88
2022-08-26T11:28:06.488Z,472.5
2022-08-26T11:29:12.241Z,466.88
2022-08-26T11:30:10.256Z,472.5
2022-08-26T11:31:17.095Z,478.13
2022-08-26T11:32:09.320Z,489.38
2022-08-26T11:33:10.495Z,483.75
2022-08-26T11:34:10.985Z,489.38
2022-08-26T11:35:11.307Z,489.38
2022-08-26T11:36:23.263Z,483.75
2022-08-26T11:37:11.555Z,489.38
2022-08-26T11:38:15.291Z,489.38
2022-08-26T11:39:12.435Z,472.5
2022-08-26T11:40:15.954Z,309.38
2022-08-26T11:41:15.363Z,472.5
2022-08-26T11:42:17.003Z,466.88
2022-08-26T11:43:16.252Z,478.13
2022-08-26T11:44:17.857Z,466.88
2022-08-26T11:45:16.555Z,455.63
2022-08-26T11:46:15.952Z,438.75
2022-08-26T11:47:22.736Z,416.25
2022-08-26T11:48:16.640Z,405
2022-08-26T11:49:17.392Z,393.75
2022-08-26T11:50:17.146Z,365.63
2022-08-26T11:51:20.515Z,348.75
2022-08-26T11:52:20.720Z,360
2022-08-26T11:53:20.088Z,360
2022-08-26T11:54:22.875Z,360
2022-08-26T11:55:23.371Z,163.13
2022-08-26T11:56:23.062Z,354.38
2022-08-26T11:57:28.426Z,354.38
2022-08-26T11:58:24.700Z,354.38
2022-08-26T11:59:25.227Z,354.38
2022-08-26T12:00:39.669Z,348.75
2022-08-26T12:01:27.974Z,348.75
2022-08-26T12:02:29.041Z,348.75
2022-08-26T12:03:30.388Z,343.13
2022-08-26T12:04:29.084Z,303.75
2022-08-26T12:05:31.883Z,326.25
2022-08-26T12:06:30.593Z,326.25
2022-08-26T12:07:36.570Z,326.25
2022-08-26T12:08:33.270Z,331.88
2022-08-26T12:09:31.721Z,331.88
2022-08-26T12:10:40.290Z,326.25
2022-08-26T12:11:33.724Z,331.88
2022-08-26T12:12:34.921Z,118.13
2022-08-26T12:13:36.803Z,331.88
2022-08-26T12:14:35.597Z,258.75
2022-08-26T12:15:36.176Z,135
2022-08-26T12:16:36.254Z,309.38
2022-08-26T12:17:38.974Z,326.25
2022-08-26T12:18:50.130Z,298.13
2022-08-26T12:19:38.386Z,320.63
2022-08-26T12:20:36.668Z,67.5
2022-08-26T12:21:45.577Z,67.5
2022-08-26T12:22:38.143Z,90
2022-08-26T12:23:38.104Z,326.25
2022-08-26T12:24:42.507Z,191.25
2022-08-26T12:25:48.790Z,180
2022-08-26T12:26:40.108Z,337.5
2022-08-26T12:27:39.985Z,286.88
2022-08-26T12:28:40.506Z,95.63
2022-08-26T12:29:48.423Z,118.13
2022-08-26T12:30:43.266Z,365.63
2022-08-26T12:31:43.487Z,376.88
2022-08-26T12:33:08.083Z,365.63
2022-08-26T12:33:44.643Z,365.63
2022-08-26T12:34:45.539Z,90
2022-08-26T12:35:47.163Z,320.63
2022-08-26T12:36:47.047Z,354.38
2022-08-26T12:37:51.444Z,337.5
2022-08-26T12:38:47.654Z,337.5
2022-08-26T12:39:48.375Z,320.63
2022-08-26T12:40:49.419Z,309.38
2022-08-26T12:41:50.002Z,303.75
2022-08-26T12:42:50.392Z,303.75
2022-08-26T12:43:51.606Z,292.5
2022-08-26T12:45:05.353Z,292.5
2022-08-26T12:45:53.279Z,196.88
2022-08-26T12:47:00.509Z,286.88
2022-08-26T12:48:00.320Z,286.88
2022-08-26T12:48:54.232Z,281.25
2022-08-26T12:49:54.869Z,281.25
2022-08-26T12:50:55.218Z,281.25
2022-08-26T12:51:56.156Z,151.88
2022-08-26T12:52:57.666Z,247.5
2022-08-26T12:53:57.896Z,180
2022-08-26T12:55:02.299Z,236.25
2022-08-26T12:55:58.262Z,123.75
2022-08-26T12:57:02.839Z,146.25
2022-08-26T12:57:59.478Z,270
2022-08-26T12:59:00.440Z,270
2022-08-26T13:00:00.076Z,270
2022-08-26T13:01:02.458Z,174.38
2022-08-26T13:02:02.023Z,151.88
2022-08-26T13:03:02.096Z,264.38
2022-08-26T13:04:03.823Z,258.75
2022-08-26T13:05:06.347Z,258.75
2022-08-26T13:06:04.862Z,258.75
2022-08-26T13:07:04.789Z,258.75
2022-08-26T13:08:06.031Z,90
2022-08-26T13:09:06.373Z,84.38
2022-08-26T13:10:06.421Z,67.5
2022-08-26T13:11:07.333Z,67.5
2022-08-26T13:12:08.252Z,67.5
2022-08-26T13:13:08.727Z,73.13
2022-08-26T13:14:12.497Z,78.75
2022-08-26T13:15:10.439Z,84.38
2022-08-26T13:16:10.883Z,78.75
2022-08-26T13:17:10.522Z,213.75
2022-08-26T13:18:14.289Z,270
2022-08-26T13:19:15.948Z,73.13
2022-08-26T13:20:17.562Z,73.13
2022-08-26T13:21:13.799Z,67.5
2022-08-26T13:22:14.748Z,61.88
2022-08-26T13:23:16.611Z,61.88
2022-08-26T13:24:17.131Z,61.88
2022-08-26T13:25:17.130Z,61.88
2022-08-26T13:26:17.711Z,67.5
2022-08-26T13:27:18.346Z,225
2022-08-26T13:28:18.962Z,78.75
2022-08-26T13:29:23.588Z,230.63
2022-08-26T13:30:24.101Z,67.5
2022-08-26T13:31:26.186Z,56.25
2022-08-26T13:32:22.057Z,50.63
2022-08-26T13:33:25.748Z,56.25
2022-08-26T13:34:23.209Z,50.63
2022-08-26T13:35:24.204Z,45
2022-08-26T13:36:24.953Z,45
2022-08-26T13:37:29.307Z,45
2022-08-26T13:38:44.825Z,56.25
2022-08-26T13:39:26.040Z,213.75
2022-08-26T13:40:30.234Z,73.13